^^
Station Historical Data
Daily Summary for April 30, 2021 Units:  English    Metric   Both
Daily Weekly Monthly Yearly
  High: Low: Average:
Temperature: 53 °F 43.3 °F 49.6 °F
Dew Point: 34.6 °F 28.3 °F 30.8 °F
Humidity: 58% 40% 48%
Wind Speed: 13mph 3mph 8.1mph
Wind Gust: 17mph - -
Wind- - WNW
Pressure: 30.10 in 29.88 in -
Precipitation: 0.00 in    
 
 
Tabular Data for April 30, 2021
Time Temperature Dew Point Pressure Wind Wind Speed Wind Gust Humidity Rainfall Rate (Hourly) solar
10:45 47.8 °F 32.9 °F 29.88 in NW 9 mph 14 mph 56% 0.00 in 673 W/m2
10:50 47.8 °F 33.3 °F 29.88 in NNW 10 mph 10 mph 57% 0.00 in 686 W/m2
10:55 47.6 °F 31.3 °F 29.88 in NNW 12 mph 12 mph 53% 0.00 in 698 W/m2
11:00 47.5 °F 31.2 °F 29.88 in NNW 12 mph 17 mph 53% 0.00 in 707 W/m2
11:05 47.6 °F 31.8 °F 29.89 in NNW 11 mph 17 mph 54% 0.00 in 721 W/m2
11:10 47.6 °F 31.3 °F 29.89 in NNW 12 mph 16 mph 53% 0.00 in 733 W/m2
11:15 47.6 °F 31.3 °F 29.89 in WNW 13 mph 16 mph 53% 0.00 in 742 W/m2
11:20 47.7 °F 28.4 °F 29.90 in NW 13 mph 13 mph 47% 0.00 in 752 W/m2
11:25 47.6 °F 29.9 °F 29.90 in NNW 12 mph 13 mph 50% 0.00 in 761 W/m2
11:30 48.5 °F 31.2 °F 29.90 in NNE 9 mph 9 mph 51% 0.00 in 768 W/m2
11:35 49.1 °F 32.7 °F 29.91 in West 7 mph 9 mph 53% 0.00 in 780 W/m2
11:40 49.4 °F 32 °F 29.90 in NE 7 mph 13 mph 51% 0.00 in 791 W/m2
11:45 49.7 °F 30.3 °F 29.91 in NNW 7 mph 13 mph 47% 0.00 in 800 W/m2
11:50 49.3 °F 28.8 °F 29.91 in NNW 8 mph 8 mph 45% 0.00 in 807 W/m2
11:55 49.9 °F 29.9 °F 29.91 in North 9 mph 9 mph 46% 0.00 in 817 W/m2
12:00 49.4 °F 30 °F 29.91 in North 9 mph 11 mph 47% 0.00 in 824 W/m2
12:05 49.4 °F 30 °F 29.92 in North 8 mph 11 mph 47% 0.00 in 830 W/m2
12:10 49.9 °F 30.5 °F 29.92 in NNW 7 mph 12 mph 47% 0.00 in 835 W/m2
12:15 49.8 °F 29.8 °F 29.92 in North 8 mph 12 mph 46% 0.00 in 840 W/m2
12:20 50 °F 28.9 °F 29.92 in North 8 mph 8 mph 44% 0.00 in 847 W/m2
12:25 50.3 °F 28.6 °F 29.93 in NW 8 mph 8 mph 43% 0.00 in 853 W/m2
12:30 50.6 °F 32.1 °F 29.93 in NE 7 mph 7 mph 49% 0.00 in 856 W/m2
12:35 50.9 °F 29.2 °F 29.93 in North 6 mph 7 mph 43% 0.00 in 863 W/m2
12:40 51.4 °F 31.3 °F 29.93 in NNW 6 mph 17 mph 46% 0.00 in 863 W/m2
12:45 50 °F 29.5 °F 29.93 in NW 8 mph 17 mph 45% 0.00 in 870 W/m2
12:50 51.4 °F 30.7 °F 29.94 in NNW 7 mph 7 mph 45% 0.00 in 875 W/m2
12:55 51.4 °F 31.8 °F 29.94 in North 6 mph 8 mph 47% 0.00 in 879 W/m2
13:00 51.6 °F 31.5 °F 29.94 in NNW 7 mph 7 mph 46% 0.00 in 881 W/m2
13:05 51.6 °F 30.9 °F 29.94 in NW 7 mph 7 mph 45% 0.00 in 884 W/m2
13:10 51.9 °F 31.2 °F 29.94 in NNW 7 mph 7 mph 45% 0.00 in 886 W/m2
13:15 51.7 °F 31 °F 29.95 in NNE 7 mph 11 mph 45% 0.00 in 884 W/m2
13:20 52.1 °F 31.9 °F 29.94 in NW 7 mph 7 mph 46% 0.00 in 889 W/m2
13:25 52.3 °F 29.9 °F 29.95 in NW 7 mph 7 mph 42% 0.00 in 888 W/m2
13:30 52.9 °F 33.2 °F 29.95 in NNW 6 mph 9 mph 47% 0.00 in 891 W/m2
13:35 52 °F 30.2 °F 29.95 in NNW 7 mph 9 mph 43% 0.00 in 889 W/m2
13:40 51.6 °F 30.9 °F 29.95 in NW 9 mph 14 mph 45% 0.00 in 891 W/m2
13:45 51.7 °F 31.6 °F 29.95 in NNW 8 mph 14 mph 46% 0.00 in 889 W/m2
13:50 52 °F 31.3 °F 29.95 in NNW 7 mph 7 mph 45% 0.00 in 888 W/m2
13:55 52.1 °F 31.9 °F 29.95 in WNW 7 mph 7 mph 46% 0.00 in 889 W/m2
14:00 51.4 °F 29.6 °F 29.95 in NW 8 mph 8 mph 43% 0.00 in 888 W/m2
14:05 51.9 °F 30.6 °F 29.95 in NW 9 mph 13 mph 44% 0.00 in 884 W/m2
14:10 51.8 °F 29.4 °F 29.95 in NW 9 mph 10 mph 42% 0.00 in 882 W/m2
14:15 52 °F 31.3 °F 29.95 in NW 9 mph 16 mph 45% 0.00 in 879 W/m2
14:20 51.9 °F 31.2 °F 29.95 in WNW 9 mph 16 mph 45% 0.00 in 877 W/m2
14:25 52.3 °F 28.7 °F 29.95 in NNW 9 mph 16 mph 40% 0.00 in 874 W/m2
14:30 51.9 °F 29.5 °F 29.96 in NW 10 mph 10 mph 42% 0.00 in 868 W/m2
14:35 52 °F 29.6 °F 29.96 in WNW 10 mph 10 mph 42% 0.00 in 863 W/m2
14:40 52.1 °F 29.7 °F 29.96 in NNW 10 mph 10 mph 42% 0.00 in 861 W/m2
14:45 52.2 °F 31.5 °F 29.96 in NE 9 mph 10 mph 45% 0.00 in 853 W/m2
14:50 52.5 °F 31.8 °F 29.96 in WSW 9 mph 9 mph 45% 0.00 in 847 W/m2
14:55 52.3 °F 30.4 °F 29.96 in NNW 10 mph 13 mph 43% 0.00 in 840 W/m2
15:00 52.6 °F 31.3 °F 29.96 in NNW 10 mph 10 mph 44% 0.00 in 837 W/m2
15:05 52.7 °F 32.5 °F 29.97 in NW 10 mph 10 mph 46% 0.00 in 828 W/m2
15:10 52.8 °F 30.9 °F 29.97 in NNW 9 mph 15 mph 43% 0.00 in 826 W/m2
15:15 52.9 °F 31 °F 29.97 in WNW 9 mph 15 mph 43% 0.00 in 816 W/m2
15:20 52.5 °F 29.5 °F 29.97 in NNW 9 mph 9 mph 41% 0.00 in 810 W/m2
15:25 52.8 °F 30.9 °F 29.97 in NW 8 mph 16 mph 43% 0.00 in 798 W/m2
15:30 52.4 °F 29.4 °F 29.97 in NNW 8 mph 8 mph 41% 0.00 in 791 W/m2
15:35 52.4 °F 30.5 °F 29.97 in NNW 9 mph 9 mph 43% 0.00 in 788 W/m2
15:40 52.7 °F 30.8 °F 29.97 in West 9 mph 9 mph 43% 0.00 in 777 W/m2
15:45 52.6 °F 32.9 °F 29.97 in WNW 9 mph 9 mph 47% 0.00 in 765 W/m2
15:50 52.1 °F 30.8 °F 29.97 in NNW 8 mph 8 mph 44% 0.00 in 758 W/m2
15:55 52.6 °F 32.4 °F 29.97 in NNW 7 mph 8 mph 46% 0.00 in 751 W/m2
16:00 52.8 °F 31.5 °F 29.97 in North 9 mph 10 mph 44% 0.00 in 738 W/m2
16:05 52.8 °F 30.3 °F 29.98 in WNW 10 mph 11 mph 42% 0.00 in 731 W/m2
16:10 52.8 °F 30.3 °F 29.98 in WNW 9 mph 9 mph 42% 0.00 in 719 W/m2
16:15 53 °F 32.8 °F 29.98 in NNW 9 mph 9 mph 46% 0.00 in 708 W/m2
16:20 52.7 °F 33 °F 29.98 in NNW 10 mph 10 mph 47% 0.00 in 696 W/m2
16:25 52.8 °F 33.1 °F 29.98 in NW 8 mph 10 mph 47% 0.00 in 686 W/m2
16:30 52.9 °F 31.6 °F 29.98 in WNW 8 mph 8 mph 44% 0.00 in 677 W/m2
16:35 53 °F 32.8 °F 29.99 in WSW 9 mph 9 mph 46% 0.00 in 664 W/m2
16:40 52.6 °F 32.4 °F 29.99 in NNW 8 mph 8 mph 46% 0.00 in 652 W/m2
16:45 52.8 °F 32 °F 29.99 in NW 8 mph 8 mph 45% 0.00 in 642 W/m2
16:50 52.5 °F 29.5 °F 29.99 in NW 9 mph 11 mph 41% 0.00 in 631 W/m2
16:55 53 °F 31.1 °F 29.99 in West 9 mph 11 mph 43% 0.00 in 613 W/m2
17:00 52.4 °F 31.7 °F 30.00 in West 10 mph 10 mph 45% 0.00 in 603 W/m2
17:05 52.7 °F 34.6 °F 30.00 in NNW 8 mph 10 mph 50% 0.00 in 587 W/m2
17:10 52.5 °F 31.8 °F 30.00 in WNW 7 mph 14 mph 45% 0.00 in 580 W/m2
17:15 52.1 °F 32.5 °F 30.00 in NW 8 mph 14 mph 47% 0.00 in 566 W/m2
17:20 52.5 °F 31.8 °F 30.00 in North 9 mph 9 mph 45% 0.00 in 554 W/m2
17:25 52.4 °F 32.2 °F 30.00 in NNW 9 mph 9 mph 46% 0.00 in 538 W/m2
17:30 52.1 °F 30.3 °F 30.00 in WNW 9 mph 9 mph 43% 0.00 in 524 W/m2
17:35 52.2 °F 31.5 °F 30.00 in North 8 mph 9 mph 45% 0.00 in 510 W/m2
17:40 52.3 °F 32.6 °F 30.01 in NW 8 mph 9 mph 47% 0.00 in 496 W/m2
17:45 52.2 °F 33.1 °F 30.00 in NNW 9 mph 9 mph 48% 0.00 in 483 W/m2
17:50 51.9 °F 32.3 °F 30.01 in NW 10 mph 10 mph 47% 0.00 in 468 W/m2
17:55 52 °F 31.3 °F 30.01 in North 10 mph 16 mph 45% 0.00 in 454 W/m2
18:00 51.8 °F 31.1 °F 30.01 in West 10 mph 10 mph 45% 0.00 in 436 W/m2
18:05 51.7 °F 31 °F 30.01 in NW 9 mph 10 mph 45% 0.00 in 424 W/m2
18:10 51.7 °F 32.1 °F 30.01 in WNW 8 mph 8 mph 47% 0.00 in 408 W/m2
18:15 51.3 °F 31.7 °F 30.01 in NW 9 mph 13 mph 47% 0.00 in 396 W/m2
18:20 51.4 °F 31.8 °F 30.01 in NNW 9 mph 12 mph 47% 0.00 in 381 W/m2
18:25 51.4 °F 31.8 °F 30.02 in WNW 7 mph 12 mph 47% 0.00 in 366 W/m2
18:30 51.5 °F 31.4 °F 30.02 in NW 7 mph 12 mph 46% 0.00 in 352 W/m2
18:35 51.1 °F 31.6 °F 30.02 in NNW 8 mph 12 mph 47% 0.00 in 334 W/m2
18:40 50.9 °F 32.9 °F 30.03 in WNW 10 mph 10 mph 50% 0.00 in 315 W/m2
18:45 50.5 °F 32.5 °F 30.03 in NW 10 mph 14 mph 50% 0.00 in 299 W/m2
18:50 50.3 °F 29.7 °F 30.03 in WNW 10 mph 11 mph 45% 0.00 in 285 W/m2
18:55 50.4 °F 30.9 °F 30.03 in NNW 9 mph 11 mph 47% 0.00 in 246 W/m2
19:00 50.4 °F 33.4 °F 30.03 in North 7 mph 7 mph 52% 0.00 in 116 W/m2
19:05 50.3 °F 32.4 °F 30.03 in NNE 6 mph 7 mph 50% 0.00 in 102 W/m2
19:10 50 °F 33.1 °F 30.04 in WNW 5 mph 7 mph 52% 0.00 in 69 W/m2
19:15 49.9 °F 32.5 °F 30.04 in NW 5 mph 7 mph 51% 0.00 in 81 W/m2
19:20 49.8 °F 30.4 °F 30.05 in WNW 6 mph 6 mph 47% 0.00 in 70 W/m2
19:25 49.7 °F 29.7 °F 30.04 in North 7 mph 10 mph 46% 0.00 in 84 W/m2
19:30 49.7 °F 31.3 °F 30.05 in NW 8 mph 8 mph 49% 0.00 in 135 W/m2
19:35 49.4 °F 31.5 °F 30.05 in NW 8 mph 8 mph 50% 0.00 in 86 W/m2
19:40 49.3 °F 30.4 °F 30.04 in NW 8 mph 16 mph 48% 0.00 in 49 W/m2
19:45 49.2 °F 29.8 °F 30.05 in North 10 mph 16 mph 47% 0.00 in 47 W/m2
19:50 49 °F 31.2 °F 30.05 in NNW 11 mph 11 mph 50% 0.00 in 56 W/m2
19:55 48.8 °F 30 °F 30.05 in West 11 mph 11 mph 48% 0.00 in 53 W/m2
20:00 48.7 °F 30.4 °F 30.05 in NW 11 mph 11 mph 49% 0.00 in 51 W/m2
20:05 48.5 °F 30.7 °F 30.05 in NW 8 mph 13 mph 50% 0.00 in 35 W/m2
20:10 48.4 °F 30.1 °F 30.05 in NW 8 mph 9 mph 49% 0.00 in 33 W/m2
20:15 48.3 °F 31 °F 30.06 in NW 8 mph 9 mph 51% 0.00 in 28 W/m2
20:20 48.1 °F 28.3 °F 30.06 in NW 8 mph 13 mph 46% 0.00 in 16 W/m2
20:25 48 °F 29.2 °F 30.06 in WNW 8 mph 13 mph 48% 0.00 in 11 W/m2
20:30 47.6 °F 30.8 °F 30.07 in NE 7 mph 7 mph 52% 0.00 in 9 W/m2
20:35 47.6 °F 31.3 °F 30.07 in NW 7 mph 7 mph 53% 0.00 in 7 W/m2
20:40 47.6 °F 30.8 °F 30.07 in NW 8 mph 8 mph 52% 0.00 in 5 W/m2
20:45 47.5 °F 30.3 °F 30.07 in WNW 8 mph 8 mph 51% 0.00 in 0 W/m2
20:50 47.3 °F 30.5 °F 30.07 in WNW 7 mph 7 mph 52% 0.00 in 0 W/m2
20:55 47.2 °F 30.9 °F 30.07 in West 6 mph 7 mph 53% 0.00 in 0 W/m2
21:00 46.9 °F 30.2 °F 30.07 in NW 5 mph 5 mph 52% 0.00 in 0 W/m2
21:05 47 °F 30.3 °F 30.08 in NW 5 mph 10 mph 52% 0.00 in 0 W/m2
21:10 47 °F 29.3 °F 30.08 in NW 6 mph 9 mph 50% 0.00 in 0 W/m2
21:15 46.9 °F 30.2 °F 30.08 in WNW 6 mph 9 mph 52% 0.00 in 0 W/m2
21:20 46.9 °F 28.7 °F 30.08 in NW 8 mph 8 mph 49% 0.00 in 0 W/m2
21:25 46.8 °F 30.1 °F 30.08 in WNW 7 mph 8 mph 52% 0.00 in 0 W/m2
21:30 46.5 °F 31.2 °F 30.08 in NNW 6 mph 6 mph 55% 0.00 in 0 W/m2
21:35 46.5 °F 29.8 °F 30.08 in West 6 mph 6 mph 52% 0.00 in 0 W/m2
21:40 46.5 °F 29.8 °F 30.08 in NNW 7 mph 7 mph 52% 0.00 in 0 W/m2
21:45 46.3 °F 29.6 °F 30.09 in NNW 8 mph 8 mph 52% 0.00 in 0 W/m2
21:50 46.1 °F 30.4 °F 30.09 in NNW 7 mph 7 mph 54% 0.00 in 0 W/m2
21:55 46 °F 30.7 °F 30.09 in North 7 mph 12 mph 55% 0.00 in 0 W/m2
22:00 45.9 °F 29.7 °F 30.09 in NNW 8 mph 8 mph 53% 0.00 in 0 W/m2
22:05 45.8 °F 30.1 °F 30.09 in NNW 8 mph 10 mph 54% 0.00 in 0 W/m2
22:10 45.8 °F 30.1 °F 30.09 in North 9 mph 9 mph 54% 0.00 in 0 W/m2
22:15 45.7 °F 29.1 °F 30.09 in North 9 mph 9 mph 52% 0.00 in 0 W/m2
22:20 45.6 °F 29.4 °F 30.09 in North 7 mph 7 mph 53% 0.00 in 0 W/m2
22:25 45.6 °F 29 °F 30.10 in NW 8 mph 12 mph 52% 0.00 in 0 W/m2
22:30 45.6 °F 29 °F 30.10 in WNW 8 mph 8 mph 52% 0.00 in 0 W/m2
22:35 45.4 °F 29.3 °F 30.10 in NW 8 mph 8 mph 53% 0.00 in 0 W/m2
22:40 45.2 °F 29.5 °F 30.10 in NW 7 mph 7 mph 54% 0.00 in 0 W/m2
22:45 45 °F 29.8 °F 30.10 in WNW 7 mph 7 mph 55% 0.00 in 0 W/m2
22:50 44.9 °F 29.2 °F 30.10 in NW 7 mph 8 mph 54% 0.00 in 0 W/m2
22:55 44.9 °F 29.7 °F 30.10 in WNW 8 mph 8 mph 55% 0.00 in 0 W/m2
23:00 44.8 °F 29.2 °F 30.10 in NW 9 mph 11 mph 54% 0.00 in 0 W/m2
23:05 44.7 °F 30 °F 30.10 in NNW 8 mph 11 mph 56% 0.00 in 0 W/m2
23:10 44.6 °F 29.4 °F 30.10 in WNW 7 mph 7 mph 55% 0.00 in 0 W/m2
23:15 44.4 °F 29.2 °F 30.10 in West 6 mph 7 mph 55% 0.00 in 0 W/m2
23:20 44.3 °F 29.1 °F 30.10 in NW 7 mph 7 mph 55% 0.00 in 0 W/m2
23:25 44.2 °F 29 °F 30.10 in West 8 mph 8 mph 55% 0.00 in 0 W/m2
23:30 44.1 °F 28.5 °F 30.10 in WNW 7 mph 7 mph 54% 0.00 in 0 W/m2
23:35 44 °F 29.7 °F 30.10 in NW 6 mph 7 mph 57% 0.00 in 0 W/m2
23:40 43.9 °F 30.1 °F 30.10 in NW 6 mph 6 mph 58% 0.00 in 0 W/m2
23:45 43.6 °F 29.4 °F 30.10 in WSW 4 mph 8 mph 57% 0.00 in 0 W/m2
23:50 43.4 °F 29.6 °F 30.10 in NNW 3 mph 3 mph 58% 0.00 in 0 W/m2
23:55 43.3 °F 29.1 °F 30.10 in NW 3 mph 3 mph 57% 0.00 in 0 W/m2
Sand Point, Michigan, USA
Compliments of Weather Underground - 2 mb